createdAt,value
2019-03-10T00:00:34.600Z,974.06
2019-03-10T00:01:34.554Z,974.07
2019-03-10T00:02:34.532Z,974.08
2019-03-10T00:03:34.463Z,974.04
2019-03-10T00:04:34.417Z,974.10
2019-03-10T00:05:34.371Z,974.13
2019-03-10T00:06:34.326Z,974.08
2019-03-10T00:07:34.284Z,974.04
2019-03-10T00:08:34.234Z,973.99
2019-03-10T00:09:34.213Z,973.97
2019-03-10T00:10:34.142Z,973.95
2019-03-10T00:11:34.133Z,973.98
2019-03-10T00:12:34.050Z,973.90
2019-03-10T00:13:34.007Z,973.96
2019-03-10T00:14:33.965Z,973.93
2019-03-10T00:15:33.920Z,973.93
2019-03-10T00:16:33.870Z,973.91
2019-03-10T00:17:33.857Z,973.90
2019-03-10T00:18:33.779Z,973.89
2019-03-10T00:19:33.739Z,973.88
2019-03-10T00:20:33.688Z,973.86
2019-03-10T00:21:33.652Z,973.85
2019-03-10T00:22:33.596Z,973.82
2019-03-10T00:23:33.553Z,973.79
2019-03-10T00:24:33.522Z,973.78
2019-03-10T00:25:33.459Z,973.73
2019-03-10T00:26:33.417Z,973.76
2019-03-10T00:27:33.372Z,973.69
2019-03-10T00:28:33.348Z,973.70
2019-03-10T00:29:33.280Z,973.66
2019-03-10T00:30:33.233Z,973.64
2019-03-10T00:31:33.194Z,973.62
2019-03-10T00:32:33.142Z,973.57
2019-03-10T00:33:33.107Z,973.59
2019-03-10T00:34:33.051Z,973.58
2019-03-10T00:35:33.004Z,973.58
2019-03-10T00:36:32.958Z,973.56
2019-03-10T00:37:32.913Z,973.56
2019-03-10T00:38:32.886Z,973.59
2019-03-10T00:39:32.817Z,973.62
2019-03-10T00:40:32.776Z,973.59
2019-03-10T00:41:32.736Z,973.64
2019-03-10T00:42:32.682Z,973.59
2019-03-10T00:43:32.639Z,973.50
2019-03-10T00:44:32.618Z,973.44
2019-03-10T00:45:32.548Z,973.38
2019-03-10T00:46:32.502Z,973.42
2019-03-10T00:47:32.456Z,973.45
2019-03-10T00:48:32.406Z,973.50
2019-03-10T00:49:32.372Z,973.49
2019-03-10T00:50:32.322Z,973.46
2019-03-10T00:51:34.266Z,973.50
2019-03-10T00:52:32.250Z,973.50
2019-03-10T00:53:32.186Z,973.50
2019-03-10T00:54:32.146Z,973.49
2019-03-10T00:55:32.091Z,973.43
2019-03-10T00:56:32.047Z,973.38
2019-03-10T00:57:32.047Z,973.39
2019-03-10T00:58:31.964Z,973.38
2019-03-10T00:59:31.913Z,973.36
2019-03-10T01:00:31.863Z,973.36
2019-03-10T01:01:31.835Z,973.30
2019-03-10T01:02:31.775Z,973.29
2019-03-10T01:03:31.747Z,973.28
2019-03-10T01:04:31.686Z,973.25
2019-03-10T01:05:31.675Z,973.26
2019-03-10T01:06:31.593Z,973.20
2019-03-10T01:07:31.552Z,973.21
2019-03-10T01:08:31.499Z,973.19
2019-03-10T01:09:31.458Z,973.16
2019-03-10T01:10:31.409Z,973.13
2019-03-10T01:11:31.402Z,973.11
2019-03-10T01:12:31.319Z,973.04
2019-03-10T01:13:31.279Z,973.05
2019-03-10T01:14:31.241Z,973.04
2019-03-10T01:15:31.183Z,973.02
2019-03-10T01:16:31.135Z,973.02
2019-03-10T01:17:31.094Z,972.93
2019-03-10T01:18:31.045Z,972.93
2019-03-10T01:19:31.001Z,972.91
2019-03-10T01:20:30.956Z,972.90
2019-03-10T01:21:30.911Z,972.92
2019-03-10T01:22:30.897Z,972.88
2019-03-10T01:23:30.821Z,972.84
2019-03-10T01:24:30.772Z,972.75
2019-03-10T01:25:30.728Z,972.74
2019-03-10T01:26:30.684Z,972.71
2019-03-10T01:27:30.637Z,972.70
2019-03-10T01:28:30.660Z,972.65
2019-03-10T01:29:30.558Z,972.62
2019-03-10T01:30:30.502Z,972.62
2019-03-10T01:31:30.454Z,972.57
2019-03-10T01:32:30.406Z,972.51
2019-03-10T01:33:30.364Z,972.52
2019-03-10T01:34:30.327Z,972.46
2019-03-10T01:35:30.273Z,972.41
2019-03-10T01:36:30.229Z,972.40
2019-03-10T01:37:30.186Z,972.42
2019-03-10T01:38:30.142Z,972.40
2019-03-10T01:39:30.091Z,972.40
2019-03-10T01:40:30.046Z,972.36
2019-03-10T01:41:30.001Z,972.30
2019-03-10T01:42:29.955Z,972.29
2019-03-10T01:43:29.906Z,972.28
2019-03-10T01:44:29.865Z,972.24
2019-03-10T01:45:29.816Z,972.24
2019-03-10T01:46:29.783Z,972.24
2019-03-10T01:47:29.721Z,972.22
2019-03-10T01:48:29.681Z,972.18
2019-03-10T01:49:29.653Z,972.16
2019-03-10T01:50:29.592Z,972.14
2019-03-10T01:51:29.542Z,972.15
2019-03-10T01:52:29.498Z,972.06
2019-03-10T01:53:29.452Z,972.03
2019-03-10T01:54:29.404Z,971.98
2019-03-10T01:55:29.370Z,971.97
2019-03-10T01:56:29.325Z,971.92
2019-03-10T01:57:29.283Z,971.88
2019-03-10T01:58:29.227Z,971.77
2019-03-10T01:59:29.192Z,971.78
2019-03-10T02:00:29.135Z,971.76
2019-03-10T02:01:29.092Z,971.74
2019-03-10T02:02:29.048Z,971.76
2019-03-10T02:03:29.014Z,971.72
2019-03-10T02:04:28.954Z,971.70
2019-03-10T02:05:28.904Z,971.65
2019-03-10T02:06:28.895Z,971.60
2019-03-10T02:07:28.816Z,971.59
2019-03-10T02:08:28.783Z,971.53
2019-03-10T02:09:28.738Z,971.48
2019-03-10T02:10:28.679Z,971.35
2019-03-10T02:11:28.635Z,971.31
2019-03-10T02:12:28.590Z,971.28
2019-03-10T02:13:28.550Z,971.25
2019-03-10T02:14:28.499Z,971.20
2019-03-10T02:15:28.453Z,971.11
2019-03-10T02:16:28.408Z,971.10
2019-03-10T02:17:28.362Z,971.12
2019-03-10T02:18:28.318Z,971.08
2019-03-10T02:19:28.272Z,971.01
2019-03-10T02:20:28.226Z,971.05
2019-03-10T02:21:28.226Z,970.94
2019-03-10T02:22:28.135Z,970.99
2019-03-10T02:23:28.092Z,970.99
2019-03-10T02:24:28.039Z,970.91
2019-03-10T02:25:27.997Z,970.89
2019-03-10T02:26:27.951Z,970.86
2019-03-10T02:27:27.908Z,970.85
2019-03-10T02:28:27.890Z,970.85
2019-03-10T02:29:27.812Z,970.80
2019-03-10T02:30:27.774Z,970.74
2019-03-10T02:31:27.767Z,970.70
2019-03-10T02:32:27.691Z,970.69
2019-03-10T02:33:27.662Z,970.69
2019-03-10T02:34:27.593Z,970.67
2019-03-10T02:35:27.545Z,970.67
2019-03-10T02:36:27.498Z,970.63
2019-03-10T02:37:27.454Z,970.56
2019-03-10T02:38:27.408Z,970.53
2019-03-10T02:39:27.455Z,970.52
2019-03-10T02:40:27.314Z,970.53
2019-03-10T02:41:27.273Z,970.53
2019-03-10T02:42:27.241Z,970.48
2019-03-10T02:43:27.181Z,970.46
2019-03-10T02:44:27.154Z,970.44
2019-03-10T02:45:27.085Z,970.36
2019-03-10T02:46:27.047Z,970.28
2019-03-10T02:47:27.003Z,970.23
2019-03-10T02:48:26.981Z,970.16
2019-03-10T02:49:26.907Z,970.14
2019-03-10T02:50:26.863Z,970.11
2019-03-10T02:51:26.819Z,970.08
2019-03-10T02:52:26.772Z,970.00
2019-03-10T02:53:26.745Z,969.95
2019-03-10T02:54:26.680Z,969.89
2019-03-10T02:55:26.635Z,969.84
2019-03-10T02:56:26.586Z,969.77
2019-03-10T02:57:26.544Z,969.74
2019-03-10T02:58:26.502Z,969.69
2019-03-10T02:59:26.458Z,969.67
2019-03-10T03:00:26.421Z,969.61
2019-03-10T03:01:26.359Z,969.56
2019-03-10T03:02:26.318Z,969.58
2019-03-10T03:03:26.273Z,969.57
2019-03-10T03:04:26.227Z,969.56
2019-03-10T03:05:26.179Z,969.50
2019-03-10T03:06:26.134Z,969.50
2019-03-10T03:07:26.100Z,969.52
2019-03-10T03:08:26.045Z,969.53
2019-03-10T03:09:25.993Z,969.50
2019-03-10T03:10:25.955Z,969.44
2019-03-10T03:11:25.918Z,969.44
2019-03-10T03:12:25.862Z,969.42
2019-03-10T03:13:25.819Z,969.43
2019-03-10T03:14:25.777Z,969.42
2019-03-10T03:15:25.729Z,969.41
2019-03-10T03:16:25.681Z,969.41
2019-03-10T03:17:25.635Z,969.36
2019-03-10T03:18:25.591Z,969.34
2019-03-10T03:19:25.544Z,969.32
2019-03-10T03:20:25.504Z,969.28
2019-03-10T03:21:25.455Z,969.19
2019-03-10T03:22:25.412Z,969.14
2019-03-10T03:23:25.361Z,969.13
2019-03-10T03:24:25.316Z,969.05
2019-03-10T03:25:25.290Z,969.02
2019-03-10T03:26:25.228Z,969.01
2019-03-10T03:27:25.176Z,968.96
2019-03-10T03:28:25.144Z,968.93
2019-03-10T03:29:25.104Z,968.89
2019-03-10T03:30:25.052Z,968.86
2019-03-10T03:31:25.002Z,968.82
2019-03-10T03:32:24.955Z,968.78
2019-03-10T03:33:24.921Z,968.74
2019-03-10T03:34:24.874Z,968.76
2019-03-10T03:35:24.817Z,968.74
2019-03-10T03:36:24.774Z,968.70
2019-03-10T03:37:24.728Z,968.67
2019-03-10T03:38:24.712Z,968.66
2019-03-10T03:39:24.638Z,968.64
2019-03-10T03:40:24.591Z,968.62
2019-03-10T03:41:24.546Z,968.62
2019-03-10T03:42:24.500Z,968.57
2019-03-10T03:43:24.456Z,968.52
2019-03-10T03:44:24.411Z,968.53
2019-03-10T03:45:24.365Z,968.48
2019-03-10T03:46:24.319Z,968.40
2019-03-10T03:47:24.273Z,968.37
2019-03-10T03:48:24.222Z,968.32
2019-03-10T03:49:24.183Z,968.32
2019-03-10T03:50:24.135Z,968.28
2019-03-10T03:51:24.093Z,968.33
2019-03-10T03:52:24.044Z,968.28
2019-03-10T03:53:24.004Z,968.25
2019-03-10T03:54:23.959Z,968.23
2019-03-10T03:55:23.923Z,968.26
2019-03-10T03:56:23.868Z,968.27
2019-03-10T03:57:23.819Z,968.26
2019-03-10T03:58:23.794Z,968.27
2019-03-10T03:59:23.736Z,968.25
2019-03-10T04:00:23.740Z,968.18
2019-03-10T04:01:23.637Z,968.17
2019-03-10T04:02:23.602Z,968.19
2019-03-10T04:03:23.550Z,968.09
2019-03-10T04:04:23.500Z,968.09
2019-03-10T04:05:23.454Z,968.05
2019-03-10T04:06:23.412Z,968.08
2019-03-10T04:07:23.367Z,968.05
2019-03-10T04:08:23.333Z,968.04
2019-03-10T04:09:23.279Z,968.02
2019-03-10T04:10:23.228Z,967.93
2019-03-10T04:11:23.186Z,967.92
2019-03-10T04:12:23.138Z,967.87
2019-03-10T04:13:23.100Z,967.81
2019-03-10T04:14:23.098Z,967.75
2019-03-10T04:15:23.005Z,967.74
2019-03-10T04:16:22.963Z,967.71
2019-03-10T04:17:22.911Z,967.65
2019-03-10T04:18:22.869Z,967.56
2019-03-10T04:19:22.821Z,967.54
2019-03-10T04:20:22.781Z,967.55
2019-03-10T04:21:22.731Z,967.49
2019-03-10T04:22:22.696Z,967.48
2019-03-10T04:23:22.651Z,967.49
2019-03-10T04:24:22.595Z,967.45
2019-03-10T04:25:22.557Z,967.39
2019-03-10T04:26:22.510Z,967.37
2019-03-10T04:27:22.460Z,967.32
2019-03-10T04:28:22.413Z,967.30
2019-03-10T04:29:22.372Z,967.26
2019-03-10T04:30:22.319Z,967.25
2019-03-10T04:31:22.276Z,967.20
2019-03-10T04:32:22.235Z,967.16
2019-03-10T04:33:22.202Z,967.14
2019-03-10T04:34:22.139Z,967.13
2019-03-10T04:35:22.101Z,967.11
2019-03-10T04:36:22.051Z,967.10
2019-03-10T04:37:22.011Z,967.09
2019-03-10T04:38:21.960Z,967.08
2019-03-10T04:39:21.916Z,967.00
2019-03-10T04:40:21.869Z,966.93
2019-03-10T04:41:21.818Z,966.90
2019-03-10T04:42:21.777Z,966.85
2019-03-10T04:43:21.731Z,966.79
2019-03-10T04:44:21.685Z,966.76
2019-03-10T04:45:21.644Z,966.74
2019-03-10T04:46:21.593Z,966.67
2019-03-10T04:47:21.564Z,966.64
2019-03-10T04:48:21.505Z,966.60
2019-03-10T04:49:21.462Z,966.52
2019-03-10T04:50:21.415Z,966.44
2019-03-10T04:51:21.369Z,966.42
2019-03-10T04:52:21.334Z,966.37
2019-03-10T04:53:21.277Z,966.31
2019-03-10T04:54:21.232Z,966.24
2019-03-10T04:55:21.188Z,966.16
2019-03-10T04:56:21.143Z,966.16
2019-03-10T04:57:21.098Z,966.07
2019-03-10T04:58:21.052Z,966.00
2019-03-10T04:59:21.007Z,966.00
2019-03-10T05:00:20.958Z,965.91
2019-03-10T05:01:20.915Z,965.81
2019-03-10T05:02:20.932Z,965.75
2019-03-10T05:03:20.827Z,965.73
2019-03-10T05:04:20.794Z,965.67
2019-03-10T05:05:20.732Z,965.63
2019-03-10T05:06:20.690Z,965.62
2019-03-10T05:07:20.643Z,965.59
2019-03-10T05:08:20.595Z,965.60
2019-03-10T05:09:20.555Z,965.56
2019-03-10T05:10:20.535Z,965.51
2019-03-10T05:11:20.465Z,965.46
2019-03-10T05:12:20.423Z,965.39
2019-03-10T05:13:20.372Z,965.36
2019-03-10T05:14:20.328Z,965.27
2019-03-10T05:15:20.285Z,965.24
2019-03-10T05:16:20.297Z,965.20
2019-03-10T05:17:20.190Z,965.13
2019-03-10T05:18:20.143Z,965.09
2019-03-10T05:19:20.099Z,965.06
2019-03-10T05:20:20.054Z,965.02
2019-03-10T05:21:20.089Z,964.90
2019-03-10T05:22:19.963Z,964.89
2019-03-10T05:23:19.918Z,964.83
2019-03-10T05:24:19.883Z,964.79
2019-03-10T05:25:19.828Z,964.73
2019-03-10T05:26:19.782Z,964.74
2019-03-10T05:27:19.732Z,964.75
2019-03-10T05:28:19.690Z,964.70
2019-03-10T05:29:19.648Z,964.64
2019-03-10T05:30:19.601Z,964.61
2019-03-10T05:31:19.555Z,964.63
2019-03-10T05:32:19.513Z,964.58
2019-03-10T05:33:19.464Z,964.48
2019-03-10T05:34:19.419Z,964.48
2019-03-10T05:35:19.373Z,964.45
2019-03-10T05:36:19.329Z,964.42
2019-03-10T05:37:19.282Z,964.41
2019-03-10T05:38:19.239Z,964.34
2019-03-10T05:39:19.193Z,964.34
2019-03-10T05:40:19.147Z,964.24
2019-03-10T05:41:19.103Z,964.19
2019-03-10T05:42:19.056Z,964.15
2019-03-10T05:43:19.012Z,964.12
2019-03-10T05:44:18.965Z,964.15
2019-03-10T05:45:18.922Z,963.96
2019-03-10T05:46:18.875Z,964.03
2019-03-10T05:47:18.831Z,964.05
2019-03-10T05:48:18.790Z,963.98
2019-03-10T05:49:18.749Z,963.96
2019-03-10T05:50:18.695Z,963.83
2019-03-10T05:51:18.667Z,963.83
2019-03-10T05:52:18.604Z,963.99
2019-03-10T05:53:18.571Z,963.96
2019-03-10T05:54:18.518Z,963.94
2019-03-10T05:55:18.475Z,963.94
2019-03-10T05:56:18.422Z,963.92
2019-03-10T05:57:18.377Z,963.86
2019-03-10T05:58:18.331Z,963.84
2019-03-10T05:59:18.309Z,963.82
2019-03-10T06:00:18.245Z,963.80
2019-03-10T06:01:18.196Z,963.71
2019-03-10T06:02:18.150Z,963.74
2019-03-10T06:03:18.106Z,963.67
2019-03-10T06:04:18.062Z,963.61
2019-03-10T06:05:18.023Z,963.59
2019-03-10T06:06:17.970Z,963.56
2019-03-10T06:07:17.926Z,963.53
2019-03-10T06:08:17.884Z,963.53
2019-03-10T06:09:17.834Z,963.44
2019-03-10T06:10:17.786Z,963.42
2019-03-10T06:11:17.743Z,963.39
2019-03-10T06:12:17.696Z,963.39
2019-03-10T06:13:17.652Z,963.37
2019-03-10T06:14:17.642Z,963.41
2019-03-10T06:15:17.571Z,963.36
2019-03-10T06:16:17.516Z,963.33
2019-03-10T06:17:17.471Z,963.37
2019-03-10T06:18:17.437Z,963.34
2019-03-10T06:19:17.387Z,963.26
2019-03-10T06:20:17.338Z,963.25
2019-03-10T06:21:17.308Z,963.21
2019-03-10T06:22:17.245Z,963.19
2019-03-10T06:23:17.200Z,963.15
2019-03-10T06:24:17.150Z,963.08
2019-03-10T06:25:17.106Z,963.06
2019-03-10T06:26:17.065Z,963.03
2019-03-10T06:27:17.025Z,962.97
2019-03-10T06:28:16.972Z,962.96
2019-03-10T06:29:16.930Z,962.95
2019-03-10T06:30:16.899Z,962.95
2019-03-10T06:31:16.838Z,962.91
2019-03-10T06:32:16.798Z,962.87
2019-03-10T06:33:16.751Z,962.91
2019-03-10T06:34:16.703Z,962.88
2019-03-10T06:35:16.660Z,962.89
2019-03-10T06:36:16.645Z,962.85
2019-03-10T06:37:16.559Z,962.92
2019-03-10T06:38:16.520Z,962.83
2019-03-10T06:39:16.480Z,962.85
2019-03-10T06:40:16.433Z,962.82
2019-03-10T06:41:16.376Z,962.77
2019-03-10T06:42:16.340Z,962.79
2019-03-10T06:43:16.293Z,962.78
2019-03-10T06:44:16.249Z,962.77
2019-03-10T06:45:16.204Z,962.75
2019-03-10T06:46:16.199Z,962.69
2019-03-10T06:47:16.109Z,962.73
2019-03-10T06:48:16.068Z,962.73
2019-03-10T06:49:16.025Z,962.70
2019-03-10T06:50:15.979Z,962.65
2019-03-10T06:51:15.945Z,962.70
2019-03-10T06:52:15.889Z,962.60
2019-03-10T06:53:15.842Z,962.68
2019-03-10T06:54:15.801Z,962.57
2019-03-10T06:55:15.751Z,962.53
2019-03-10T06:56:15.747Z,962.55
2019-03-10T06:57:15.676Z,962.46
2019-03-10T06:58:15.615Z,962.54
2019-03-10T06:59:15.572Z,962.46
2019-03-10T07:00:15.523Z,962.42
2019-03-10T07:01:15.479Z,962.41
2019-03-10T07:02:15.436Z,962.40
2019-03-10T07:03:15.390Z,962.42
2019-03-10T07:04:15.344Z,962.36
2019-03-10T07:05:15.309Z,962.36
2019-03-10T07:06:15.254Z,962.30
2019-03-10T07:07:15.209Z,962.34
2019-03-10T07:08:15.162Z,962.35
2019-03-10T07:09:15.121Z,962.30
2019-03-10T07:10:15.073Z,962.27
2019-03-10T07:11:15.030Z,962.26
2019-03-10T07:12:14.990Z,962.29
2019-03-10T07:13:14.946Z,962.28
2019-03-10T07:14:14.898Z,962.22
2019-03-10T07:15:14.913Z,962.23
2019-03-10T07:16:14.797Z,962.22
2019-03-10T07:17:14.772Z,962.23
2019-03-10T07:18:14.708Z,962.22
2019-03-10T07:19:14.666Z,962.20
2019-03-10T07:20:14.623Z,962.22
2019-03-10T07:21:14.594Z,962.18
2019-03-10T07:22:14.532Z,962.13
2019-03-10T07:23:14.484Z,962.20
2019-03-10T07:24:14.438Z,962.18
2019-03-10T07:25:14.393Z,962.09
2019-03-10T07:26:14.348Z,962.12
2019-03-10T07:27:14.304Z,962.10
2019-03-10T07:28:14.257Z,962.04
2019-03-10T07:29:14.216Z,962.07
2019-03-10T07:30:14.168Z,962.02
2019-03-10T07:31:14.123Z,962.07
2019-03-10T07:32:14.074Z,962.07
2019-03-10T07:33:14.035Z,962.08
2019-03-10T07:34:13.984Z,962.01
2019-03-10T07:35:13.942Z,962.03
2019-03-10T07:36:13.932Z,962.02
2019-03-10T07:37:13.856Z,961.99
2019-03-10T07:38:13.813Z,962.08
2019-03-10T07:39:13.986Z,962.08
2019-03-10T07:40:13.734Z,962.06
2019-03-10T07:41:13.671Z,962.08
2019-03-10T07:42:13.639Z,962.08
2019-03-10T07:43:13.580Z,962.11
2019-03-10T07:44:13.543Z,962.07
2019-03-10T07:45:13.491Z,962.02
2019-03-10T07:46:13.450Z,962.11
2019-03-10T07:47:13.398Z,962.00
2019-03-10T07:48:13.359Z,962.01
2019-03-10T07:49:13.308Z,962.02
2019-03-10T07:50:13.262Z,961.98
2019-03-10T07:51:13.221Z,962.00
2019-03-10T07:52:20.235Z,961.95
2019-03-10T07:53:13.130Z,962.00
2019-03-10T07:54:13.092Z,962.04
2019-03-10T07:55:13.037Z,962.01
2019-03-10T07:56:12.997Z,962.05
2019-03-10T07:57:12.950Z,962.02
2019-03-10T07:58:12.913Z,961.97
2019-03-10T07:59:12.864Z,961.89
2019-03-10T08:00:12.813Z,961.94
2019-03-10T08:01:12.759Z,961.94
2019-03-10T08:02:12.723Z,961.95
2019-03-10T08:03:12.673Z,961.92
2019-03-10T08:04:12.630Z,961.92
2019-03-10T08:05:12.587Z,961.89
2019-03-10T08:06:12.544Z,961.90
2019-03-10T08:07:12.494Z,961.84
2019-03-10T08:08:12.450Z,961.99
2019-03-10T08:09:12.406Z,962.03
2019-03-10T08:10:12.361Z,961.97
2019-03-10T08:11:12.316Z,961.92
2019-03-10T08:12:12.270Z,961.98
2019-03-10T08:13:12.223Z,961.94
2019-03-10T08:14:12.179Z,961.94
2019-03-10T08:15:12.133Z,962.05
2019-03-10T08:16:12.090Z,962.04
2019-03-10T08:17:12.039Z,961.94
2019-03-10T08:18:12.002Z,961.93
2019-03-10T08:19:11.953Z,961.94
2019-03-10T08:20:11.913Z,961.94
2019-03-10T08:21:11.862Z,961.96
2019-03-10T08:22:11.822Z,961.83
2019-03-10T08:23:11.771Z,961.86
2019-03-10T08:24:11.727Z,961.91
2019-03-10T08:25:11.682Z,961.97
2019-03-10T08:26:11.638Z,962.00
2019-03-10T08:27:11.594Z,961.93
2019-03-10T08:28:11.549Z,961.94
2019-03-10T08:29:11.517Z,961.95
2019-03-10T08:30:11.470Z,961.90
2019-03-10T08:31:11.412Z,961.95
2019-03-10T08:32:11.365Z,962.09
2019-03-10T08:33:11.328Z,962.07
2019-03-10T08:34:11.275Z,962.08
2019-03-10T08:35:11.237Z,961.95
2019-03-10T08:36:13.563Z,961.92
2019-03-10T08:37:11.148Z,961.96
2019-03-10T08:38:11.095Z,962.06
2019-03-10T08:39:11.054Z,962.03
2019-03-10T08:40:11.007Z,962.04
2019-03-10T08:41:10.957Z,962.03
2019-03-10T08:42:19.856Z,962.08
2019-03-10T08:43:10.876Z,962.05
2019-03-10T08:44:10.823Z,962.15
2019-03-10T08:45:10.779Z,962.15
2019-03-10T08:46:10.739Z,962.18
2019-03-10T08:47:10.691Z,962.23
2019-03-10T08:48:10.645Z,962.12
2019-03-10T08:49:10.595Z,962.21
2019-03-10T08:50:10.557Z,962.05
2019-03-10T08:51:10.527Z,961.95
2019-03-10T08:52:10.468Z,962.08
2019-03-10T08:53:10.417Z,962.03
2019-03-10T08:54:10.369Z,961.92
2019-03-10T08:55:10.327Z,961.89
2019-03-10T08:56:10.283Z,961.90
2019-03-10T08:57:10.237Z,961.89
2019-03-10T08:58:10.193Z,962.01
2019-03-10T08:59:10.140Z,961.90
2019-03-10T09:00:10.110Z,961.89
2019-03-10T09:01:10.480Z,961.84
2019-03-10T09:02:10.029Z,961.79
2019-03-10T09:03:09.973Z,961.79
2019-03-10T09:04:09.921Z,961.83
2019-03-10T09:05:09.881Z,961.89
2019-03-10T09:06:09.844Z,961.89
2019-03-10T09:07:09.791Z,961.93
2019-03-10T09:08:09.740Z,961.86
2019-03-10T09:09:09.691Z,961.89
2019-03-10T09:10:09.660Z,961.70
2019-03-10T09:11:09.660Z,961.96
2019-03-10T09:12:09.557Z,962.00
2019-03-10T09:13:09.516Z,962.00
2019-03-10T09:14:09.495Z,961.99
2019-03-10T09:15:09.433Z,962.00
2019-03-10T09:16:09.391Z,962.02
2019-03-10T09:17:09.340Z,961.99
2019-03-10T09:18:09.339Z,961.94
2019-03-10T09:19:09.254Z,961.73
2019-03-10T09:20:09.219Z,961.90
2019-03-10T09:21:09.154Z,961.71
2019-03-10T09:22:09.118Z,961.78
2019-03-10T09:23:09.066Z,961.69
2019-03-10T09:24:09.021Z,961.75
2019-03-10T09:25:08.977Z,961.85
2019-03-10T09:26:08.959Z,961.81
2019-03-10T09:27:08.887Z,961.85
2019-03-10T09:28:08.835Z,961.88
2019-03-10T09:29:08.815Z,961.76
2019-03-10T09:30:08.751Z,961.69
2019-03-10T09:31:08.703Z,961.74
2019-03-10T09:32:08.657Z,961.68
2019-03-10T09:33:08.615Z,961.70
2019-03-10T09:34:08.597Z,961.66
2019-03-10T09:35:08.516Z,961.65
2019-03-10T09:36:08.502Z,961.72
2019-03-10T09:37:08.477Z,961.59
2019-03-10T09:38:08.391Z,961.54
2019-03-10T09:39:08.338Z,961.52
2019-03-10T09:40:08.331Z,961.57
2019-03-10T09:41:08.249Z,961.49
2019-03-10T09:42:08.211Z,961.57
2019-03-10T09:43:08.165Z,961.56
2019-03-10T09:44:08.117Z,961.62
2019-03-10T09:45:08.080Z,961.57
2019-03-10T09:46:08.027Z,961.52
2019-03-10T09:47:08.017Z,961.52
2019-03-10T09:48:07.938Z,961.46
2019-03-10T09:49:07.898Z,961.51
2019-03-10T09:50:07.908Z,961.45
2019-03-10T09:51:07.802Z,961.41
2019-03-10T09:52:07.759Z,961.55
2019-03-10T09:53:07.717Z,961.58
2019-03-10T09:54:07.674Z,961.38
2019-03-10T09:55:07.636Z,961.39
2019-03-10T09:56:07.575Z,961.48
2019-03-10T09:57:07.548Z,961.41
2019-03-10T09:58:07.488Z,961.41
2019-03-10T09:59:07.440Z,961.34
2019-03-10T10:00:07.399Z,961.21
2019-03-10T10:01:07.369Z,961.30
2019-03-10T10:02:07.309Z,961.43
2019-03-10T10:03:07.299Z,961.40
2019-03-10T10:04:07.215Z,961.33
2019-03-10T10:05:07.177Z,961.41
2019-03-10T10:06:07.127Z,961.42
2019-03-10T10:07:07.082Z,961.63
2019-03-10T10:08:07.037Z,961.18
2019-03-10T10:09:06.987Z,961.04
2019-03-10T10:10:06.973Z,961.03
2019-03-10T10:11:06.899Z,961.30
2019-03-10T10:12:13.522Z,960.97
2019-03-10T10:13:06.811Z,961.03
2019-03-10T10:14:06.806Z,961.07
2019-03-10T10:15:06.722Z,961.09
2019-03-10T10:16:06.681Z,960.94
2019-03-10T10:17:06.667Z,961.20
2019-03-10T10:18:06.592Z,961.06
2019-03-10T10:19:06.584Z,961.07
2019-03-10T10:20:06.501Z,960.98
2019-03-10T10:21:06.451Z,961.08
2019-03-10T10:22:06.420Z,961.01
2019-03-10T10:23:06.360Z,961.17
2019-03-10T10:24:06.308Z,961.27
2019-03-10T10:25:06.317Z,961.46
2019-03-10T10:26:06.241Z,961.15
2019-03-10T10:27:06.228Z,961.06
2019-03-10T10:28:06.137Z,961.08
2019-03-10T10:29:06.090Z,961.05
2019-03-10T10:30:06.044Z,961.04
2019-03-10T10:31:05.999Z,960.91
2019-03-10T10:32:05.954Z,961.05
2019-03-10T10:33:05.914Z,960.96
2019-03-10T10:34:05.877Z,960.84
2019-03-10T10:35:05.823Z,960.90
2019-03-10T10:36:05.772Z,960.85
2019-03-10T10:37:05.731Z,960.83
2019-03-10T10:38:05.755Z,960.71
2019-03-10T10:39:05.640Z,960.75
2019-03-10T10:40:05.593Z,960.69
2019-03-10T10:41:05.552Z,960.63
2019-03-10T10:42:05.518Z,960.66
2019-03-10T10:43:05.470Z,960.79
2019-03-10T10:44:05.423Z,960.93
2019-03-10T10:45:05.370Z,960.83
2019-03-10T10:46:05.343Z,960.81
2019-03-10T10:47:05.281Z,960.68
2019-03-10T10:48:05.234Z,960.75
2019-03-10T10:49:05.217Z,960.85
2019-03-10T10:50:05.146Z,960.82
2019-03-10T10:51:05.113Z,960.89
2019-03-10T10:52:05.098Z,960.61
2019-03-10T10:53:05.022Z,960.91
2019-03-10T10:54:04.980Z,960.83
2019-03-10T10:55:04.921Z,960.57
2019-03-10T10:56:04.874Z,960.80
2019-03-10T10:57:04.863Z,960.59
2019-03-10T10:58:05.649Z,960.75
2019-03-10T10:59:04.741Z,960.61
2019-03-10T11:00:04.705Z,960.77
2019-03-10T11:01:04.650Z,960.75
2019-03-10T11:02:04.607Z,960.60
2019-03-10T11:03:04.575Z,960.58
2019-03-10T11:04:04.523Z,960.52
2019-03-10T11:05:04.494Z,960.68
2019-03-10T11:06:04.428Z,960.64
2019-03-10T11:07:04.383Z,960.63
2019-03-10T11:08:04.353Z,960.53
2019-03-10T11:09:04.291Z,960.40
2019-03-10T11:10:04.245Z,960.37
2019-03-10T11:11:04.203Z,960.57
2019-03-10T11:12:04.155Z,960.51
2019-03-10T11:13:04.108Z,960.64
2019-03-10T11:14:04.069Z,960.49
2019-03-10T11:15:04.022Z,960.47
2019-03-10T11:16:04.018Z,960.54
2019-03-10T11:17:03.931Z,960.57
2019-03-10T11:18:09.298Z,960.76
2019-03-10T11:19:03.837Z,960.59
2019-03-10T11:20:03.804Z,960.65
2019-03-10T11:21:03.745Z,960.66
2019-03-10T11:22:03.705Z,960.88
2019-03-10T11:23:03.664Z,960.79
2019-03-10T11:24:03.658Z,960.72
2019-03-10T11:25:03.568Z,960.68
2019-03-10T11:26:03.526Z,960.59
2019-03-10T11:27:03.493Z,960.72
2019-03-10T11:28:03.437Z,960.82
2019-03-10T11:29:04.055Z,960.74
2019-03-10T11:30:03.353Z,960.57
2019-03-10T11:31:03.309Z,960.72
2019-03-10T11:32:03.258Z,960.74
2019-03-10T11:33:03.232Z,960.59
2019-03-10T11:34:03.181Z,960.71
2019-03-10T11:35:03.123Z,960.73
2019-03-10T11:36:03.086Z,960.64
2019-03-10T11:37:03.060Z,960.55
2019-03-10T11:38:03.006Z,960.56
2019-03-10T11:39:02.972Z,960.59
2019-03-10T11:40:02.903Z,960.58
2019-03-10T11:41:02.855Z,960.41
2019-03-10T11:42:02.813Z,960.53
2019-03-10T11:43:02.790Z,960.59
2019-03-10T11:44:02.723Z,960.49
2019-03-10T11:45:02.688Z,960.46
2019-03-10T11:46:02.643Z,960.43
2019-03-10T11:47:02.608Z,960.43
2019-03-10T11:48:02.540Z,960.48
2019-03-10T11:49:02.501Z,960.45
2019-03-10T11:50:02.454Z,960.43
2019-03-10T11:51:02.410Z,960.36
2019-03-10T11:52:02.362Z,960.40
2019-03-10T11:53:02.327Z,960.49
2019-03-10T11:54:02.316Z,960.41
2019-03-10T11:55:02.246Z,960.33
2019-03-10T11:56:02.245Z,960.49
2019-03-10T11:57:02.142Z,960.37
2019-03-10T11:58:02.098Z,960.45
2019-03-10T11:59:02.048Z,960.58
2019-03-10T12:00:02.003Z,960.50
2019-03-10T12:01:01.971Z,960.71
2019-03-10T12:02:01.917Z,960.51
2019-03-10T12:03:01.886Z,960.47
2019-03-10T12:04:01.827Z,960.48
2019-03-10T12:05:01.784Z,960.52
2019-03-10T12:06:01.741Z,960.47
2019-03-10T12:07:01.696Z,960.47
2019-03-10T12:08:01.655Z,960.63
2019-03-10T12:09:01.606Z,960.56
2019-03-10T12:10:01.572Z,960.72
2019-03-10T12:11:01.519Z,960.43
2019-03-10T13:10:29.007Z,962.17
2019-03-10T13:11:28.933Z,962.33
2019-03-10T13:14:59.591Z,962.31
2019-03-10T13:15:53.552Z,962.15
2019-03-10T13:16:53.503Z,962.33
2019-03-10T13:17:53.463Z,962.25
2019-03-10T13:18:53.407Z,962.27
2019-03-10T13:19:53.372Z,962.44
2019-03-10T13:20:53.315Z,962.49
2019-03-10T13:21:53.267Z,962.33
2019-03-10T13:22:53.224Z,962.40
2019-03-10T13:23:53.172Z,962.51
2019-03-10T13:24:53.194Z,962.53
2019-03-10T13:25:53.082Z,962.59
2019-03-10T13:26:53.033Z,962.57
2019-03-10T13:27:52.984Z,962.72
2019-03-10T13:28:52.941Z,962.46